sensor_id;sensor_type;location;lat;lon;timestamp;pressure;altitude;pressure_sealevel;temperature;humidity
52927;BME280;40783;49.710;8.842;2023-07-20T00:00:33;98883.38;;;20.16;88.89
52927;BME280;40783;49.710;8.842;2023-07-20T00:03:11;98877.13;;;20.15;89.16
52927;BME280;40783;49.710;8.842;2023-07-20T00:05:42;98883.38;;;20.16;88.07
52927;BME280;40783;49.710;8.842;2023-07-20T00:08:09;98880.06;;;20.14;87.95
52927;BME280;40783;49.710;8.842;2023-07-20T00:10:37;98871.34;;;20.12;86.84
52927;BME280;40783;49.710;8.842;2023-07-20T00:13:02;98880.53;;;20.11;87.89
52927;BME280;40783;49.710;8.842;2023-07-20T00:15:28;98878.88;;;20.10;87.21
52927;BME280;40783;49.710;8.842;2023-07-20T00:17:53;98883.72;;;20.08;86.31
52927;BME280;40783;49.710;8.842;2023-07-20T00:20:18;98885.22;;;20.04;86.93
52927;BME280;40783;49.710;8.842;2023-07-20T00:22:43;98886.28;;;20.02;86.36
52927;BME280;40783;49.710;8.842;2023-07-20T00:25:09;98883.56;;;20.02;85.59
52927;BME280;40783;49.710;8.842;2023-07-20T00:27:36;98882.97;;;20.00;86.58
52927;BME280;40783;49.710;8.842;2023-07-20T00:30:02;98882.09;;;20.00;86.39
52927;BME280;40783;49.710;8.842;2023-07-20T00:32:29;98881.59;;;19.91;82.43
52927;BME280;40783;49.710;8.842;2023-07-20T00:34:54;98888.13;;;19.83;83.39
52927;BME280;40783;49.710;8.842;2023-07-20T00:37:22;98878.53;;;19.81;85.07
52927;BME280;40783;49.710;8.842;2023-07-20T00:39:47;98881.25;;;19.81;86.51
52927;BME280;40783;49.710;8.842;2023-07-20T00:42:12;98880.81;;;19.84;86.46
52927;BME280;40783;49.710;8.842;2023-07-20T00:44:37;98889.19;;;19.82;85.98
52927;BME280;40783;49.710;8.842;2023-07-20T00:47:03;98885.63;;;19.82;86.73
52927;BME280;40783;49.710;8.842;2023-07-20T00:49:28;98884.56;;;19.83;86.45
52927;BME280;40783;49.710;8.842;2023-07-20T00:51:53;98879.00;;;19.78;86.96
52927;BME280;40783;49.710;8.842;2023-07-20T00:54:21;98882.16;;;19.75;86.16
52927;BME280;40783;49.710;8.842;2023-07-20T00:56:51;98884.72;;;19.69;86.93
52927;BME280;40783;49.710;8.842;2023-07-20T00:59:17;98892.78;;;19.76;87.81
52927;BME280;40783;49.710;8.842;2023-07-20T01:01:43;98889.03;;;19.77;86.73
52927;BME280;40783;49.710;8.842;2023-07-20T01:04:08;98903.84;;;19.75;86.47
52927;BME280;40783;49.710;8.842;2023-07-20T01:06:48;98893.44;;;19.71;84.66
52927;BME280;40783;49.710;8.842;2023-07-20T01:12:06;98893.13;;;19.61;85.86
52927;BME280;40783;49.710;8.842;2023-07-20T01:14:34;98890.56;;;19.66;86.61
52927;BME280;40783;49.710;8.842;2023-07-20T01:17:02;98886.81;;;19.67;86.18
52927;BME280;40783;49.710;8.842;2023-07-20T01:19:29;98884.53;;;19.64;86.75
52927;BME280;40783;49.710;8.842;2023-07-20T01:31:59;98888.19;;;19.58;86.49
52927;BME280;40783;49.710;8.842;2023-07-20T01:34:28;98884.00;;;19.55;86.25
52927;BME280;40783;49.710;8.842;2023-07-20T01:36:56;98886.13;;;19.53;87.06
52927;BME280;40783;49.710;8.842;2023-07-20T01:39:22;98881.53;;;19.54;86.39
52927;BME280;40783;49.710;8.842;2023-07-20T01:41:48;98891.19;;;19.50;85.91
52927;BME280;40783;49.710;8.842;2023-07-20T01:44:13;98878.66;;;19.49;86.21
52927;BME280;40783;49.710;8.842;2023-07-20T01:46:41;98885.34;;;19.46;86.30
52927;BME280;40783;49.710;8.842;2023-07-20T01:49:06;98889.97;;;19.46;86.01
52927;BME280;40783;49.710;8.842;2023-07-20T01:51:33;98896.72;;;19.36;85.19
52927;BME280;40783;49.710;8.842;2023-07-20T01:54:01;98892.94;;;19.37;85.31
52927;BME280;40783;49.710;8.842;2023-07-20T01:56:26;98886.91;;;19.35;85.96
52927;BME280;40783;49.710;8.842;2023-07-20T01:58:54;98877.13;;;19.34;85.43
52927;BME280;40783;49.710;8.842;2023-07-20T02:01:19;98881.56;;;19.28;85.18
52927;BME280;40783;49.710;8.842;2023-07-20T02:03:44;98877.41;;;19.26;86.39
52927;BME280;40783;49.710;8.842;2023-07-20T02:06:09;98888.06;;;19.21;84.94
52927;BME280;40783;49.710;8.842;2023-07-20T02:08:34;98873.91;;;19.19;85.57
52927;BME280;40783;49.710;8.842;2023-07-20T02:11:00;98880.38;;;19.18;85.81
52927;BME280;40783;49.710;8.842;2023-07-20T02:13:25;98885.19;;;19.16;85.96
52927;BME280;40783;49.710;8.842;2023-07-20T02:15:50;98887.75;;;19.10;85.44
52927;BME280;40783;49.710;8.842;2023-07-20T02:18:16;98888.22;;;19.07;86.28
52927;BME280;40783;49.710;8.842;2023-07-20T02:20:43;98878.41;;;19.06;86.03
52927;BME280;40783;49.710;8.842;2023-07-20T02:23:09;98890.75;;;19.02;85.27
52927;BME280;40783;49.710;8.842;2023-07-20T02:25:34;98876.16;;;19.03;85.91
52927;BME280;40783;49.710;8.842;2023-07-20T02:28:03;98889.53;;;18.98;86.17
52927;BME280;40783;49.710;8.842;2023-07-20T02:30:31;98888.69;;;18.97;86.16
52927;BME280;40783;49.710;8.842;2023-07-20T02:32:58;98882.84;;;18.94;86.40
52927;BME280;40783;49.710;8.842;2023-07-20T02:35:23;98882.69;;;18.89;86.89
52927;BME280;40783;49.710;8.842;2023-07-20T02:37:52;98891.25;;;18.86;86.67
52927;BME280;40783;49.710;8.842;2023-07-20T02:40:17;98887.91;;;18.83;86.39
52927;BME280;40783;49.710;8.842;2023-07-20T02:42:42;98895.88;;;18.78;87.55
52927;BME280;40783;49.710;8.842;2023-07-20T02:45:08;98893.78;;;18.80;87.02
52927;BME280;40783;49.710;8.842;2023-07-20T02:47:35;98896.31;;;18.75;86.83
52927;BME280;40783;49.710;8.842;2023-07-20T02:50:01;98900.91;;;18.75;87.34
52927;BME280;40783;49.710;8.842;2023-07-20T02:52:28;98895.91;;;18.72;86.79
52927;BME280;40783;49.710;8.842;2023-07-20T02:54:56;98902.19;;;18.65;87.29
52927;BME280;40783;49.710;8.842;2023-07-20T02:57:24;98901.97;;;18.67;87.37
52927;BME280;40783;49.710;8.842;2023-07-20T02:59:52;98897.84;;;18.64;87.84
52927;BME280;40783;49.710;8.842;2023-07-20T03:02:17;98896.16;;;18.63;87.35
52927;BME280;40783;49.710;8.842;2023-07-20T03:04:42;98905.53;;;18.61;87.72
52927;BME280;40783;49.710;8.842;2023-07-20T03:07:10;98904.31;;;18.57;87.29
52927;BME280;40783;49.710;8.842;2023-07-20T03:09:35;98903.72;;;18.54;87.12
52927;BME280;40783;49.710;8.842;2023-07-20T03:12:02;98896.84;;;18.52;86.48
52927;BME280;40783;49.710;8.842;2023-07-20T03:14:32;98909.38;;;18.46;86.81
52927;BME280;40783;49.710;8.842;2023-07-20T03:16:57;98915.25;;;18.43;86.83
52927;BME280;40783;49.710;8.842;2023-07-20T03:19:23;98905.88;;;18.39;85.94
52927;BME280;40783;49.710;8.842;2023-07-20T03:21:48;98910.06;;;18.35;86.43
52927;BME280;40783;49.710;8.842;2023-07-20T03:24:16;98912.34;;;18.38;86.50
52927;BME280;40783;49.710;8.842;2023-07-20T03:26:43;98912.78;;;18.35;87.40
52927;BME280;40783;49.710;8.842;2023-07-20T03:29:08;98907.78;;;18.32;86.95
52927;BME280;40783;49.710;8.842;2023-07-20T03:31:36;98916.09;;;18.30;87.10
52927;BME280;40783;49.710;8.842;2023-07-20T03:34:01;98916.09;;;18.30;86.93
52927;BME280;40783;49.710;8.842;2023-07-20T03:36:26;98912.19;;;18.26;87.29
52927;BME280;40783;49.710;8.842;2023-07-20T03:38:52;98914.47;;;18.22;87.91
52927;BME280;40783;49.710;8.842;2023-07-20T03:41:17;98928.44;;;18.19;88.09
52927;BME280;40783;49.710;8.842;2023-07-20T03:43:42;98929.47;;;18.18;86.86
52927;BME280;40783;49.710;8.842;2023-07-20T03:46:07;98929.91;;;18.15;87.25
52927;BME280;40783;49.710;8.842;2023-07-20T03:48:33;98925.75;;;18.13;86.45
52927;BME280;40783;49.710;8.842;2023-07-20T03:51:00;98925.97;;;18.11;86.35
52927;BME280;40783;49.710;8.842;2023-07-20T03:53:26;98937.00;;;18.09;86.34
52927;BME280;40783;49.710;8.842;2023-07-20T03:55:51;98931.19;;;18.06;86.36
52927;BME280;40783;49.710;8.842;2023-07-20T03:58:17;98928.91;;;18.03;85.84
52927;BME280;40783;49.710;8.842;2023-07-20T04:00:44;98928.69;;;17.98;85.77
52927;BME280;40783;49.710;8.842;2023-07-20T04:03:10;98928.69;;;17.98;86.52
52927;BME280;40783;49.710;8.842;2023-07-20T04:05:37;98923.28;;;17.98;86.02
52927;BME280;40783;49.710;8.842;2023-07-20T04:08:02;98929.94;;;17.95;86.18
52927;BME280;40783;49.710;8.842;2023-07-20T04:10:28;98927.47;;;17.93;85.51
52927;BME280;40783;49.710;8.842;2023-07-20T04:12:53;98930.38;;;17.85;85.67
52927;BME280;40783;49.710;8.842;2023-07-20T04:15:20;98928.50;;;17.86;85.61
52927;BME280;40783;49.710;8.842;2023-07-20T04:17:46;98931.63;;;17.89;85.86
52927;BME280;40783;49.710;8.842;2023-07-20T04:20:13;98924.56;;;17.88;86.43
52927;BME280;40783;49.710;8.842;2023-07-20T04:22:38;98932.03;;;17.86;86.40
52927;BME280;40783;49.710;8.842;2023-07-20T04:25:04;98923.31;;;17.84;86.03
52927;BME280;40783;49.710;8.842;2023-07-20T04:27:29;98928.72;;;17.84;85.86
52927;BME280;40783;49.710;8.842;2023-07-20T04:29:54;98937.88;;;17.83;85.77
52927;BME280;40783;49.710;8.842;2023-07-20T04:32:19;98933.53;;;17.69;86.39
52927;BME280;40783;49.710;8.842;2023-07-20T04:34:45;98943.91;;;17.78;86.63
52927;BME280;40783;49.710;8.842;2023-07-20T04:37:10;98941.00;;;17.80;85.83
52927;BME280;40783;49.710;8.842;2023-07-20T04:39:35;98943.72;;;17.80;86.57
52927;BME280;40783;49.710;8.842;2023-07-20T04:42:02;98943.72;;;17.80;86.24
52927;BME280;40783;49.710;8.842;2023-07-20T04:44:30;98940.59;;;17.70;86.04
52927;BME280;40783;49.710;8.842;2023-07-20T04:46:58;98943.72;;;17.73;86.55
52927;BME280;40783;49.710;8.842;2023-07-20T04:49:23;98944.94;;;17.77;85.62
52927;BME280;40783;49.710;8.842;2023-07-20T04:51:51;98953.47;;;17.81;86.76
52927;BME280;40783;49.710;8.842;2023-07-20T04:54:16;98948.28;;;17.79;87.25
52927;BME280;40783;49.710;8.842;2023-07-20T04:56:44;98952.44;;;17.82;87.75
52927;BME280;40783;49.710;8.842;2023-07-20T04:59:09;98947.88;;;17.76;86.83
52927;BME280;40783;49.710;8.842;2023-07-20T05:01:37;98939.13;;;17.74;88.00
52927;BME280;40783;49.710;8.842;2023-07-20T05:04:02;98940.38;;;17.78;88.03
52927;BME280;40783;49.710;8.842;2023-07-20T05:06:30;98940.78;;;17.82;87.61
52927;BME280;40783;49.710;8.842;2023-07-20T05:08:55;98943.72;;;17.80;88.44
52927;BME280;40783;49.710;8.842;2023-07-20T05:11:22;98943.28;;;17.83;87.90
52927;BME280;40783;49.710;8.842;2023-07-20T05:13:50;98940.97;;;17.87;87.94
52927;BME280;40783;49.710;8.842;2023-07-20T05:16:15;98943.72;;;17.80;87.05
52927;BME280;40783;49.710;8.842;2023-07-20T05:18:43;98936.22;;;17.82;87.53
52927;BME280;40783;49.710;8.842;2023-07-20T05:21:08;98933.72;;;17.80;86.53
52927;BME280;40783;49.710;8.842;2023-07-20T05:23:35;98938.72;;;17.63;86.94
52927;BME280;40783;49.710;8.842;2023-07-20T05:26:03;98937.28;;;17.54;88.44
52927;BME280;40783;49.710;8.842;2023-07-20T05:28:28;98936.44;;;17.60;88.45
52927;BME280;40783;49.710;8.842;2023-07-20T05:30:56;98925.00;;;17.58;87.85
52927;BME280;40783;49.710;8.842;2023-07-20T05:33:21;98931.25;;;17.65;87.81
52927;BME280;40783;49.710;8.842;2023-07-20T05:35:49;98924.59;;;17.68;88.05
52927;BME280;40783;49.710;8.842;2023-07-20T05:38:14;98925.81;;;17.79;87.67
52927;BME280;40783;49.710;8.842;2023-07-20T05:40:44;98930.38;;;17.85;87.89
52927;BME280;40783;49.710;8.842;2023-07-20T05:43:10;98933.28;;;17.90;87.59
52927;BME280;40783;49.710;8.842;2023-07-20T05:45:38;98927.22;;;18.02;87.47
52927;BME280;40783;49.710;8.842;2023-07-20T05:48:06;98927.44;;;18.07;85.97
52927;BME280;40783;49.710;8.842;2023-07-20T05:50:31;98929.47;;;18.18;86.18
52927;BME280;40783;49.710;8.842;2023-07-20T05:52:57;98933.63;;;18.28;85.64
52927;BME280;40783;49.710;8.842;2023-07-20T05:55:22;98929.00;;;18.35;84.55
52927;BME280;40783;49.710;8.842;2023-07-20T05:57:49;98929.81;;;18.42;84.73
52927;BME280;40783;49.710;8.842;2023-07-20T06:00:15;98936.66;;;18.51;83.32
52927;BME280;40783;49.710;8.842;2023-07-20T06:02:40;98927.56;;;18.71;84.26
52927;BME280;40783;49.710;8.842;2023-07-20T06:05:06;98931.69;;;18.80;83.76
52927;BME280;40783;49.710;8.842;2023-07-20T06:07:34;98926.66;;;18.84;84.58
52927;BME280;40783;49.710;8.842;2023-07-20T06:09:59;98930.41;;;18.90;84.05
52927;BME280;40783;49.710;8.842;2023-07-20T06:12:24;98939.13;;;18.92;83.65
52927;BME280;40783;49.710;8.842;2023-07-20T06:14:52;98941.19;;;19.03;83.40
52927;BME280;40783;49.710;8.842;2023-07-20T06:17:17;98937.84;;;18.94;83.25
52927;BME280;40783;49.710;8.842;2023-07-20T06:19:42;98940.41;;;18.96;83.53
52927;BME280;40783;49.710;8.842;2023-07-20T06:22:08;98940.03;;;19.18;84.43
52927;BME280;40783;49.710;8.842;2023-07-20T06:24:33;98938.50;;;19.28;83.01
52927;BME280;40783;49.710;8.842;2023-07-20T06:26:58;98930.97;;;19.31;83.23
52927;BME280;40783;49.710;8.842;2023-07-20T06:29:23;98925.53;;;19.56;83.03
52927;BME280;40783;49.710;8.842;2023-07-20T06:31:48;98928.94;;;19.70;82.79
52927;BME280;40783;49.710;8.842;2023-07-20T06:34:14;98936.41;;;19.75;82.39
52927;BME280;40783;49.710;8.842;2023-07-20T06:36:39;98936.22;;;19.95;82.17
52927;BME280;40783;49.710;8.842;2023-07-20T06:39:04;98927.28;;;19.94;78.07
52927;BME280;40783;49.710;8.842;2023-07-20T06:41:29;98935.28;;;20.08;79.22
52927;BME280;40783;49.710;8.842;2023-07-20T06:43:54;98930.47;;;20.10;77.61
52927;BME280;40783;49.710;8.842;2023-07-20T06:46:23;98941.28;;;20.28;80.34
52927;BME280;40783;49.710;8.842;2023-07-20T06:48:48;98942.38;;;20.09;77.82
52927;BME280;40783;49.710;8.842;2023-07-20T06:51:14;98937.66;;;20.16;78.33
52927;BME280;40783;49.710;8.842;2023-07-20T06:53:39;98939.19;;;20.30;77.54
52927;BME280;40783;49.710;8.842;2023-07-20T06:56:04;98942.63;;;20.56;73.10
52927;BME280;40783;49.710;8.842;2023-07-20T06:58:29;98947.88;;;20.70;74.41
52927;BME280;40783;49.710;8.842;2023-07-20T07:00:57;98943.84;;;20.60;73.56
52927;BME280;40783;49.710;8.842;2023-07-20T07:03:22;98949.44;;;20.47;73.08
52927;BME280;40783;49.710;8.842;2023-07-20T07:05:48;98955.03;;;20.34;74.34
52927;BME280;40783;49.710;8.842;2023-07-20T07:08:15;98964.97;;;20.02;74.88
52927;BME280;40783;49.710;8.842;2023-07-20T07:10:41;98963.47;;;20.07;75.37
52927;BME280;40783;49.710;8.842;2023-07-20T07:13:06;98963.63;;;19.93;74.71
52927;BME280;40783;49.710;8.842;2023-07-20T07:15:31;98956.84;;;19.77;74.45
52927;BME280;40783;49.710;8.842;2023-07-20T07:17:57;98964.75;;;19.79;73.07
52927;BME280;40783;49.710;8.842;2023-07-20T07:20:22;98970.59;;;19.57;77.23
52927;BME280;40783;49.710;8.842;2023-07-20T07:22:50;98970.00;;;19.55;76.60
52927;BME280;40783;49.710;8.842;2023-07-20T07:25:18;98977.06;;;19.56;76.25
52927;BME280;40783;49.710;8.842;2023-07-20T07:27:44;98964.13;;;19.58;74.53
52927;BME280;40783;49.710;8.842;2023-07-20T07:30:11;98970.03;;;19.48;77.20
52927;BME280;40783;49.710;8.842;2023-07-20T07:32:39;98966.94;;;19.45;77.92
52927;BME280;40783;49.710;8.842;2023-07-20T07:35:04;98970.44;;;19.52;75.13
52927;BME280;40783;49.710;8.842;2023-07-20T07:37:30;98967.38;;;19.41;78.48
52927;BME280;40783;49.710;8.842;2023-07-20T07:39:55;98968.44;;;19.40;78.98
52927;BME280;40783;49.710;8.842;2023-07-20T07:42:23;98964.25;;;19.63;78.82
52927;BME280;40783;49.710;8.842;2023-07-20T07:44:48;98971.22;;;20.03;75.90
52927;BME280;40783;49.710;8.842;2023-07-20T07:47:13;98975.38;;;20.06;74.32
52927;BME280;40783;49.710;8.842;2023-07-20T07:49:39;98973.78;;;19.98;75.55
52927;BME280;40783;49.710;8.842;2023-07-20T07:52:04;98981.81;;;19.86;75.42
52927;BME280;40783;49.710;8.842;2023-07-20T07:54:30;98982.47;;;20.07;75.23
52927;BME280;40783;49.710;8.842;2023-07-20T07:56:57;98974.63;;;20.54;74.35
52927;BME280;40783;49.710;8.842;2023-07-20T07:59:23;98971.25;;;20.71;71.66
52927;BME280;40783;49.710;8.842;2023-07-20T08:01:48;98983.53;;;20.61;72.41
52927;BME280;40783;49.710;8.842;2023-07-20T08:04:13;98977.16;;;20.68;71.24
52927;BME280;40783;49.710;8.842;2023-07-20T08:06:39;98976.56;;;20.84;72.70
52927;BME280;40783;49.710;8.842;2023-07-20T08:09:04;98971.59;;;20.81;74.26
52927;BME280;40783;49.710;8.842;2023-07-20T08:11:29;98978.69;;;20.82;74.89
52927;BME280;40783;49.710;8.842;2023-07-20T08:13:59;98977.59;;;21.02;73.44
52927;BME280;40783;49.710;8.842;2023-07-20T08:16:24;98972.88;;;21.09;71.97
52927;BME280;40783;49.710;8.842;2023-07-20T08:18:49;98969.84;;;21.17;72.19
52927;BME280;40783;49.710;8.842;2023-07-20T08:21:17;98962.28;;;21.19;71.75
52927;BME280;40783;49.710;8.842;2023-07-20T08:23:42;98967.44;;;21.09;72.32
52927;BME280;40783;49.710;8.842;2023-07-20T08:26:10;98969.00;;;20.86;66.29
52927;BME280;40783;49.710;8.842;2023-07-20T08:28:35;98965.56;;;20.60;68.01
52927;BME280;40783;49.710;8.842;2023-07-20T08:31:05;98972.38;;;20.51;72.50
52927;BME280;40783;49.710;8.842;2023-07-20T08:33:30;98973.13;;;20.40;71.96
52927;BME280;40783;49.710;8.842;2023-07-20T08:35:58;98968.00;;;20.31;71.76
52927;BME280;40783;49.710;8.842;2023-07-20T08:38:23;98965.88;;;20.34;71.88
52927;BME280;40783;49.710;8.842;2023-07-20T08:40:49;98966.63;;;20.41;71.30
52927;BME280;40783;49.710;8.842;2023-07-20T08:43:15;98968.88;;;20.63;70.68
52927;BME280;40783;49.710;8.842;2023-07-20T08:45:44;98969.75;;;20.75;68.63
52927;BME280;40783;49.710;8.842;2023-07-20T08:48:12;98977.41;;;20.85;69.57
52927;BME280;40783;49.710;8.842;2023-07-20T08:50:37;98969.28;;;20.97;69.43
52927;BME280;40783;49.710;8.842;2023-07-20T08:53:03;98972.59;;;20.99;64.76
52927;BME280;40783;49.710;8.842;2023-07-20T08:55:29;98969.75;;;20.94;68.22
52927;BME280;40783;49.710;8.842;2023-07-20T08:57:54;98969.91;;;21.11;66.02
52927;BME280;40783;49.710;8.842;2023-07-20T09:00:23;98964.41;;;21.17;68.63
52927;BME280;40783;49.710;8.842;2023-07-20T09:02:52;98967.13;;;21.17;66.02
52927;BME280;40783;49.710;8.842;2023-07-20T09:05:18;98956.56;;;21.09;66.96
52927;BME280;40783;49.710;8.842;2023-07-20T09:07:43;98962.94;;;21.03;68.43
52927;BME280;40783;49.710;8.842;2023-07-20T09:10:08;98976.06;;;21.06;66.78
52927;BME280;40783;49.710;8.842;2023-07-20T09:12:37;98963.91;;;21.20;66.50
52927;BME280;40783;49.710;8.842;2023-07-20T09:15:05;98962.38;;;21.25;66.24
52927;BME280;40783;49.710;8.842;2023-07-20T09:17:30;98965.81;;;21.32;63.10
52927;BME280;40783;49.710;8.842;2023-07-20T09:19:56;98965.63;;;21.45;63.69
52927;BME280;40783;49.710;8.842;2023-07-20T09:22:29;98962.56;;;21.54;64.69
52927;BME280;40783;49.710;8.842;2023-07-20T09:24:55;98959.72;;;21.48;60.91
52927;BME280;40783;49.710;8.842;2023-07-20T09:27:20;98959.00;;;21.53;62.31
52927;BME280;40783;49.710;8.842;2023-07-20T09:29:49;98954.88;;;21.74;61.51
52927;BME280;40783;49.710;8.842;2023-07-20T09:32:17;98953.72;;;21.82;61.14
52927;BME280;40783;49.710;8.842;2023-07-20T09:34:45;98951.94;;;21.88;60.84
52927;BME280;40783;49.710;8.842;2023-07-20T09:37:13;98950.75;;;21.84;62.45
52927;BME280;40783;49.710;8.842;2023-07-20T09:39:46;98955.72;;;21.87;61.09
52927;BME280;40783;49.710;8.842;2023-07-20T09:42:12;98957.38;;;21.88;60.50
52927;BME280;40783;49.710;8.842;2023-07-20T09:44:40;98954.81;;;21.69;60.70
52927;BME280;40783;49.710;8.842;2023-07-20T09:47:10;98957.34;;;21.52;61.30
52927;BME280;40783;49.710;8.842;2023-07-20T09:49:39;98949.91;;;21.59;59.83
52927;BME280;40783;49.710;8.842;2023-07-20T09:52:05;98953.81;;;21.75;61.58
52927;BME280;40783;49.710;8.842;2023-07-20T09:54:30;98944.13;;;21.79;57.31
52927;BME280;40783;49.710;8.842;2023-07-20T09:56:56;98942.47;;;21.78;57.49
52927;BME280;40783;49.710;8.842;2023-07-20T09:59:21;98948.16;;;21.65;59.13
52927;BME280;40783;49.710;8.842;2023-07-20T10:01:47;98951.22;;;21.57;59.93
52927;BME280;40783;49.710;8.842;2023-07-20T10:04:16;98950.84;;;21.53;62.04
52927;BME280;40783;49.710;8.842;2023-07-20T10:06:43;98955.66;;;21.39;60.09
52927;BME280;40783;49.710;8.842;2023-07-20T10:09:12;98957.13;;;21.54;61.76
52927;BME280;40783;49.710;8.842;2023-07-20T10:11:42;98948.66;;;21.62;60.23
52927;BME280;40783;49.710;8.842;2023-07-20T10:14:09;98952.63;;;21.47;59.24
52927;BME280;40783;49.710;8.842;2023-07-20T10:16:41;98944.84;;;21.63;56.87
52927;BME280;40783;49.710;8.842;2023-07-20T10:21:49;98940.09;;;21.94;58.80
52927;BME280;40783;49.710;8.842;2023-07-20T10:24:16;98944.34;;;22.02;58.23
52927;BME280;40783;49.710;8.842;2023-07-20T10:26:42;98940.22;;;21.99;56.53
52927;BME280;40783;49.710;8.842;2023-07-20T10:29:08;98936.53;;;22.05;56.40
52927;BME280;40783;49.710;8.842;2023-07-20T10:31:33;98936.44;;;22.00;58.91
52927;BME280;40783;49.710;8.842;2023-07-20T10:33:59;98931.25;;;21.99;58.00
52927;BME280;40783;49.710;8.842;2023-07-20T10:36:25;98929.59;;;21.98;58.59
52927;BME280;40783;49.710;8.842;2023-07-20T10:38:52;98925.50;;;22.12;59.27
52927;BME280;40783;49.710;8.842;2023-07-20T10:41:28;98926.06;;;22.26;57.14
52927;BME280;40783;49.710;8.842;2023-07-20T10:44:03;98912.56;;;22.31;57.36
52927;BME280;40783;49.710;8.842;2023-07-20T10:49:05;98905.66;;;22.41;55.80
52927;BME280;40783;49.710;8.842;2023-07-20T10:51:43;98912.44;;;22.38;57.47
52927;BME280;40783;49.710;8.842;2023-07-20T10:54:33;98903.19;;;22.39;58.60
52927;BME280;40783;49.710;8.842;2023-07-20T10:56:58;98898.50;;;22.22;58.40
52927;BME280;40783;49.710;8.842;2023-07-20T10:59:42;98901.56;;;22.26;56.96
52927;BME280;40783;49.710;8.842;2023-07-20T11:02:08;98901.19;;;22.34;55.95
52927;BME280;40783;49.710;8.842;2023-07-20T11:04:43;98898.59;;;22.28;54.15
52927;BME280;40783;49.710;8.842;2023-07-20T11:07:08;98894.38;;;22.20;54.76
52927;BME280;40783;49.710;8.842;2023-07-20T11:09:34;98896.50;;;22.18;57.07
52927;BME280;40783;49.710;8.842;2023-07-20T11:14:55;98891.75;;;22.25;51.70
52927;BME280;40783;49.710;8.842;2023-07-20T11:17:21;98889.25;;;22.23;52.07
52927;BME280;40783;49.710;8.842;2023-07-20T11:19:55;98889.47;;;22.34;52.20
52927;BME280;40783;49.710;8.842;2023-07-20T11:22:20;98887.28;;;22.19;52.29
52927;BME280;40783;49.710;8.842;2023-07-20T11:24:46;98890.59;;;22.21;51.60
52927;BME280;40783;49.710;8.842;2023-07-20T11:27:11;98893.91;;;22.23;54.24
52927;BME280;40783;49.710;8.842;2023-07-20T11:29:37;98890.66;;;22.26;55.41
52927;BME280;40783;49.710;8.842;2023-07-20T11:32:02;98891.44;;;22.38;55.67
52927;BME280;40783;49.710;8.842;2023-07-20T11:34:29;98890.97;;;22.42;55.06
52927;BME280;40783;49.710;8.842;2023-07-20T11:36:55;98886.25;;;22.49;55.11
52927;BME280;40783;49.710;8.842;2023-07-20T11:39:22;98880.69;;;22.73;55.63
52927;BME280;40783;49.710;8.842;2023-07-20T11:41:54;98881.34;;;22.80;54.32
52927;BME280;40783;49.710;8.842;2023-07-20T11:44:20;98879.19;;;22.82;54.04
52927;BME280;40783;49.710;8.842;2023-07-20T11:46:59;98881.34;;;22.80;53.92
52927;BME280;40783;49.710;8.842;2023-07-20T11:49:24;98889.44;;;22.75;53.60
52927;BME280;40783;49.710;8.842;2023-07-20T11:51:50;98872.91;;;22.64;54.26
52927;BME280;40783;49.710;8.842;2023-07-20T11:54:15;98886.44;;;22.59;55.98
52927;BME280;40783;49.710;8.842;2023-07-20T11:56:41;98879.03;;;22.72;55.99
52927;BME280;40783;49.710;8.842;2023-07-20T11:59:09;98876.22;;;22.66;54.20
52927;BME280;40783;49.710;8.842;2023-07-20T12:01:34;98875.28;;;22.61;54.63
52927;BME280;40783;49.710;8.842;2023-07-20T12:04:04;98874.88;;;22.69;52.46
52927;BME280;40783;49.710;8.842;2023-07-20T12:06:32;98869.31;;;22.76;53.12
52927;BME280;40783;49.710;8.842;2023-07-20T12:08:57;98863.69;;;22.82;54.21
52927;BME280;40783;49.710;8.842;2023-07-20T12:11:37;98861.19;;;22.81;52.03
52927;BME280;40783;49.710;8.842;2023-07-20T12:14:08;98871.78;;;22.77;54.93
52927;BME280;40783;49.710;8.842;2023-07-20T12:16:34;98859.53;;;22.80;54.21
52927;BME280;40783;49.710;8.842;2023-07-20T12:21:26;98855.09;;;22.74;54.07
52927;BME280;40783;49.710;8.842;2023-07-20T12:23:51;98857.13;;;22.66;55.54
52927;BME280;40783;49.710;8.842;2023-07-20T12:26:16;98859.78;;;22.61;53.15
52927;BME280;40783;49.710;8.842;2023-07-20T12:28:42;98857.88;;;22.79;55.15
52927;BME280;40783;49.710;8.842;2023-07-20T12:31:10;98863.50;;;22.89;54.75
52927;BME280;40783;49.710;8.842;2023-07-20T12:33:38;98856.59;;;22.98;53.96
52927;BME280;40783;49.710;8.842;2023-07-20T12:36:03;98849.66;;;23.08;52.77
52927;BME280;40783;49.710;8.842;2023-07-20T12:38:29;98855.75;;;23.15;53.12
52927;BME280;40783;49.710;8.842;2023-07-20T12:40:58;98857.06;;;23.12;50.52
52927;BME280;40783;49.710;8.842;2023-07-20T12:43:24;98858.59;;;23.03;52.84
52927;BME280;40783;49.710;8.842;2023-07-20T12:45:50;98845.84;;;23.09;52.13
52927;BME280;40783;49.710;8.842;2023-07-20T12:48:15;98843.69;;;22.94;52.88
52927;BME280;40783;49.710;8.842;2023-07-20T12:50:41;98845.69;;;22.98;52.55
52927;BME280;40783;49.710;8.842;2023-07-20T12:53:06;98846.50;;;23.16;51.26
52927;BME280;40783;49.710;8.842;2023-07-20T12:55:31;98843.19;;;23.14;54.75
52927;BME280;40783;49.710;8.842;2023-07-20T12:57:59;98847.50;;;23.10;51.09
52927;BME280;40783;49.710;8.842;2023-07-20T13:00:25;98834.44;;;23.12;54.91
52927;BME280;40783;49.710;8.842;2023-07-20T13:02:50;98835.03;;;23.14;51.25
52927;BME280;40783;49.710;8.842;2023-07-20T13:05:16;98840.97;;;23.11;51.77
52927;BME280;40783;49.710;8.842;2023-07-20T13:07:41;98830.63;;;23.13;50.62
52927;BME280;40783;49.710;8.842;2023-07-20T13:10:07;98830.63;;;23.13;49.10
52927;BME280;40783;49.710;8.842;2023-07-20T13:12:33;98842.03;;;23.10;49.78
52927;BME280;40783;49.710;8.842;2023-07-20T13:14:58;98830.88;;;23.11;50.30
52927;BME280;40783;49.710;8.842;2023-07-20T13:17:29;98829.00;;;23.12;49.42
52927;BME280;40783;49.710;8.842;2023-07-20T13:19:54;98827.41;;;23.16;49.37